This demonstration page uses our WeatherBlox Daily Observations layout. Learn more.

Left ArrowRight Arrow

Hourly Observations for April 22, 2020

Temp ( °F °C ) Dew Point ( °F °C ) Humidity (%) Winds ( mph kmh ) Pressure ( in mb ) Visibility ( mi km ) Precip ( " mm )
12:51 am 00:51 Clear 55 12.8 31 -0.6 40 40 NNW 6 9 29.91 1013 10 16.0934 0 0
1:51 am 01:51 Clear 54 12.2 33 0.6 45 45 Calm 29.9 1013 10 16.0934 0 0
2:51 am 02:51 Clear 54 12.2 34 1.1 47 47 NNW 8 13 29.89 1012 10 16.0934 0 0
3:51 am 03:51 Clear 51 10.6 34 1.1 52 52 NNW 9 15 29.89 1012 10 16.0934 0 0
4:51 am 04:51 Clear 51 10.6 35 1.7 54 54 NW 7 11 29.9 1013 10 16.0934 0 0
5:51 am 05:51 Sunny 51 10.6 35 1.7 54 54 WNW 6 9 29.92 1013 10 16.0934 0 0
6:51 am 06:51 Sunny 54 12.2 34 1.1 47 47 SSE 3 6 29.94 1014 10 16.0934 0 0
7:51 am 07:51 Sunny 61 16.1 36 2.2 39 39 VRB 3 6 29.95 1014 10 16.0934 0 0
8:51 am 08:51 Sunny 68 20 37 2.8 32 32 WNW 15 24 29.93 1014 10 16.0934 0 0
9:51 am 09:51 Sunny 71 21.7 37 2.8 29 29 WNW 16 26 29.92 1013 10 16.0934 0 0
10:51 am 10:51 Sunny 76 24.4 36 2.2 23 23 WNW 10 17 29.9 1013 10 16.0934 0 0
11:51 am 11:51 Sunny 77 25 36 2.2 23 23 WNW 15 24 29.88 1012 10 16.0934 0 0
12:51 pm 12:51 Sunny 79 26.1 36 2.2 21 21 WNW 8 13 29.86 1011 10 16.0934 0 0
1:51 pm 13:51 Sunny 81 27.2 36 2.2 20 20 W 14 22 29.84 1011 10 16.0934 0 0
2:51 pm 14:51 Sunny 84 28.9 35 1.7 17 17 W 25 41 29.81 1010 10 16.0934 0 0
3:51 pm 15:51 Mostly Sunny 84 28.9 34 1.1 17 17 W 22 35 29.8 1009 10 16.0934 0 0
4:51 pm 16:51 Sunny 83 28.3 33 0.6 17 17 WNW 17 28 29.8 1009 10 16.0934 0 0
5:51 pm 17:51 Sunny 82 27.8 32 0 16 16 WNW 22 35 29.8 1009 10 16.0934 0 0
6:51 pm 18:51 Sunny 78 25.6 34 1.1 20 20 WNW 14 22 29.83 1010 10 16.0934 0 0
7:51 pm 19:51 Clear 74 23.3 36 2.2 25 25 WNW 10 17 29.85 1011 10 16.0934 0 0
8:51 pm 20:51 Clear 72 22.2 37 2.8 28 28 NW 10 17 29.88 1012 10 16.0934 0 0
9:51 pm 21:51 Clear 68 20 37 2.8 32 32 NW 8 13 29.91 1013 10 16.0934 0 0
10:51 pm 22:51 Clear 65 18.3 37 2.8 36 36 NNW 9 15 29.9 1013 10 16.0934 0 0
11:51 pm 23:51 Clear 62 16.7 36 2.2 38 38 N 8 13 29.9 1013 10 16.0934 0 0

Powered by AerisWeather